Hovedside
METAR-TAF:

METAR-TAF

Lufthavner :

Gibraltar lufthavn

Gibraltar, Gibraltar

breddegrad: 36-09N, lengdegrad: 005-21W, høyde over havet: 5 m

Gjeldene værobservasjon

Denne rapporten ble laget for 46 minutter siden, klokken 05:50 UTC
Vind 10 kt fra Vest
Temperatur 16°C
Luftfuktighet 82%
Trykk 1022 hPa
Sikt 10 km eller mer
Brutte skyer i en høyde av 5000 ft

METAR: LXGB 120550Z 27010KT 9999 BKN050 16/13 Q1022

Tid: 07:36 (06:36 UTC)

Varsel

Denne rapporten ble laget for 1 time og 13 minutter siden, klokken 05:23 UTC
Varsel gyldig fra 12. klokken 06 UTC til 12. klokken 15 UTC
Vind 11 kt fra Vest
Sikt 10 km eller mer
Få skyer i en høyde av 1400 ft
Brutte skyer i en høyde av 5000 ft
Sannsynlighet 40% :
Midlertidig
fra 12. klokken 12 UTC til 12. klokken 15 UTC
Vind 15 kt fra Vest med vindkast opp mot 25 kt
Spredte skyer i en høyde av 2000 ft

TAF: LXGB 120523Z 1206/1215 27011KT 9999 FEW014 BKN050 PROB40 TEMPO 1212/1215 26015G25KT SCT020

Værobservasjoner og værvarsel for over 4000 flyplasser (METAR- og TAF-rapporter).

Tilgjengelige stasjoner er representert av de røde og gule prikkene på kartet.

Hold musepekeren over prikken for å se navnet på stasjonen.

Klikk så for å se værobservasjoner og -varsler.

For å forandre kartet kan du klikke på den grønne knappen med svart kryss for å zoome inn, på den grønne knappen med strek for å zoome ut, eller på de grønne pilene for å se tilstøtende kart.


METAR-TAF: